PLYK1: Cottonwood River, Plymouth, KS

Data processed at Tue May 21 2019 23:50


All information presented herein is the property of the government of the United States of America and may be revised or deleted at any time without prior notice.
Dissemination of this information without the expressed written consent of the Public Affairs Office, Tulsa District U.S. Army Corps of Engineers is strictly prohibited.
These data are gathered electronically and, as presented, have not undergone any form of quality control. These data are not guaranteed to be valid or correct.
Go to home page.
Go to station list.
Go to home page.

Upstream stations:

Downstream station:
Previous Day
Next Day
Current Day
    
SHEF ID:       PLYK1     COTTONWOOD R NR PLYMOUTH, KS
STATION TYPE:  
Regulating: Stage =    28.00, Flow =    10752

               PRECIP     STAGE  STAGE(2)  RIV-FLOW  BAT-LOAD
                   in        ft        ft       cfs      volt
              Ccp-Rev   Ccp-Rev   Ccp-Rev   Ccp-Rev   Ccp-Rev
(US/Central)
05/21 00:00      0.06     25.59     25.69      8966     12.65
05/21 01:00      0.00     27.22     27.26     10160     12.65
05/21 02:00      0.02     28.28     28.46     10968     12.65
05/21 03:00      0.02     29.25     29.32     11878     12.65
05/21 04:00      0.00     29.94     29.99     12594     12.65
05/21 05:00      0.15     30.45     30.53     13137     12.65
05/21 06:00      0.27     30.86     30.90     13582     12.65
05/21 07:00      0.32     31.25     31.32     14275     12.65
05/21 08:00      0.30     31.70     31.80     15123     12.65
05/21 09:00      0.17     32.18     32.22     16068     12.65
05/21 10:00      0.10     32.56     32.72     16848     12.71
05/21 11:00      0.06     32.87     33.05     18078     12.65
05/21 12:00      0.00     33.11     33.30     19277     13.65
05/21 13:00      0.00     33.23     33.43     19903     13.07
05/21 14:00      0.00     33.31     33.55     20330      ----
05/21 15:00      0.00     33.49     33.59     22610     13.18
05/21 16:00      0.00     33.50     33.62     22748     13.36
05/21 17:00      0.01     33.52     33.65     23026     13.30
05/21 18:00      0.00     33.57     33.70     23735     13.24
05/21 19:00      0.00     33.60     33.75     24171     13.12
05/21 20:00      0.00     33.56     33.80     23592     13.00
05/21 21:00      0.00     33.69     33.83     25523     12.95
05/21 22:00      0.00     33.79     33.92     27111     12.89
05/21 23:00      0.00     33.79     33.95     27111     12.83